createdAt,value
2022-11-16T00:01:18.877Z,93.02
2022-11-16T00:04:21.515Z,92.90
2022-11-16T00:07:23.851Z,92.92
2022-11-16T00:10:26.478Z,92.87
2022-11-16T00:13:28.746Z,93.01
2022-11-16T00:16:31.872Z,93.13
2022-11-16T00:19:34.310Z,93.18
2022-11-16T00:22:36.819Z,93.19
2022-11-16T00:25:39.073Z,93.16
2022-11-16T00:28:41.556Z,93.30
2022-11-16T00:31:44.783Z,93.42
2022-11-16T00:34:47.288Z,93.50
2022-11-16T00:37:51.690Z,93.59
2022-11-16T00:40:54.311Z,93.56
2022-11-16T00:43:56.564Z,93.60
2022-11-16T00:46:59.070Z,93.77
2022-11-16T00:50:01.923Z,93.78
2022-11-16T00:53:05.513Z,93.85
2022-11-16T00:56:07.994Z,94.00
2022-11-16T00:59:10.876Z,93.93
2022-11-16T01:02:13.204Z,93.80
2022-11-16T01:05:16.135Z,93.86
2022-11-16T01:08:18.331Z,93.82
2022-11-16T01:11:39.537Z,93.88
2022-11-16T01:14:44.224Z,93.94
2022-11-16T01:17:47.539Z,93.92
2022-11-16T01:20:51.117Z,93.95
2022-11-16T01:23:54.791Z,93.77
2022-11-16T01:26:58.171Z,93.57
2022-11-16T01:30:00.889Z,93.62
2022-11-16T01:33:03.288Z,93.82
2022-11-16T01:36:14.340Z,93.89
2022-11-16T01:39:18.034Z,94.19
2022-11-16T01:42:24.893Z,94.42
2022-11-16T01:45:48.196Z,94.47
2022-11-16T01:49:03.343Z,94.36
2022-11-16T01:52:10.632Z,94.26
2022-11-16T01:55:14.170Z,94.17
2022-11-16T01:58:20.992Z,94.09
2022-11-16T02:01:24.491Z,94.06
2022-11-16T02:04:27.617Z,94.05
2022-11-16T02:08:23.664Z,94.16
2022-11-16T02:12:06.920Z,94.14
2022-11-16T02:15:44.963Z,94.12
2022-11-16T02:19:06.864Z,94.03
2022-11-16T02:22:25.513Z,93.95
2022-11-16T02:25:38.982Z,93.86
2022-11-16T02:29:07.751Z,93.81
2022-11-16T02:32:19.262Z,93.82
2022-11-16T02:35:27.339Z,93.92
2022-11-16T02:38:35.166Z,93.80
2022-11-16T02:41:41.042Z,93.62
2022-11-16T02:44:49.646Z,93.69
2022-11-16T02:47:55.828Z,93.70
2022-11-16T02:50:58.516Z,93.66
2022-11-16T02:54:15.385Z,93.59
2022-11-16T02:57:39.453Z,93.43
2022-11-16T03:01:03.344Z,93.27
2022-11-16T03:04:28.758Z,93.21
2022-11-16T03:07:44.066Z,93.30
2022-11-16T03:11:11.858Z,93.34
2022-11-16T03:14:20.708Z,93.47
2022-11-16T03:17:39.330Z,93.61
2022-11-16T03:20:44.095Z,93.53
2022-11-16T03:23:46.939Z,93.47
2022-11-16T03:27:07.137Z,93.51
2022-11-16T03:30:24.928Z,93.50
2022-11-16T03:33:32.990Z,93.48
2022-11-16T03:36:40.766Z,93.47
2022-11-16T03:39:44.612Z,93.48
2022-11-16T03:42:49.612Z,93.37
2022-11-16T03:45:53.588Z,93.35
2022-11-16T03:49:00.556Z,93.39
2022-11-16T03:52:05.483Z,93.38
2022-11-16T03:55:09.316Z,93.37
2022-11-16T03:58:11.956Z,93.39
2022-11-16T04:01:14.724Z,93.55
2022-11-16T04:04:36.305Z,93.48
2022-11-16T04:07:57.614Z,93.58
2022-11-16T04:11:19.003Z,93.57
2022-11-16T04:14:42.976Z,93.57
2022-11-16T04:18:04.832Z,93.56
2022-11-16T04:21:36.119Z,93.47
2022-11-16T04:24:43.162Z,93.35
2022-11-16T04:28:04.274Z,93.39
2022-11-16T04:31:25.511Z,93.44
2022-11-16T04:34:48.844Z,93.37
2022-11-16T04:37:53.541Z,93.32
2022-11-16T04:40:55.956Z,93.36
2022-11-16T04:43:59.184Z,93.52
2022-11-16T04:47:07.819Z,93.62
2022-11-16T04:50:11.091Z,93.72
2022-11-16T04:53:14.105Z,93.74
2022-11-16T04:56:18.339Z,93.81
2022-11-16T04:59:21.512Z,94.02
2022-11-16T05:02:24.115Z,93.92
2022-11-16T05:05:26.792Z,93.84
2022-11-16T05:08:29.370Z,93.94
2022-11-16T05:11:31.642Z,93.94
2022-11-16T05:14:34.667Z,94.06
2022-11-16T05:17:37.097Z,94.21
2022-11-16T05:20:58.902Z,94.31
2022-11-16T05:24:20.646Z,94.31
2022-11-16T05:27:25.593Z,94.41
2022-11-16T05:30:29.712Z,94.48
2022-11-16T05:33:33.148Z,94.52
2022-11-16T05:36:35.418Z,94.47
2022-11-16T05:39:38.755Z,94.67
2022-11-16T05:42:41.003Z,94.66
2022-11-16T05:45:43.942Z,94.67
2022-11-16T05:48:46.839Z,94.67
2022-11-16T05:51:50.277Z,94.79
2022-11-16T05:54:53.422Z,94.97
2022-11-16T05:57:55.997Z,94.95
2022-11-16T06:00:58.609Z,94.89
2022-11-16T06:04:02.139Z,94.75
2022-11-16T06:07:04.950Z,94.72
2022-11-16T06:10:07.959Z,94.48
2022-11-16T06:13:10.652Z,94.37
2022-11-16T06:16:13.634Z,94.47
2022-11-16T06:19:16.040Z,94.42
2022-11-16T06:22:18.603Z,94.51
2022-11-16T06:25:20.927Z,94.56
2022-11-16T06:28:24.198Z,94.58
2022-11-16T06:31:26.517Z,94.64
2022-11-16T06:34:29.883Z,94.53
2022-11-16T06:37:33.582Z,94.49
2022-11-16T06:40:38.402Z,94.49
2022-11-16T06:43:40.613Z,94.61
2022-11-16T06:46:43.158Z,94.65
2022-11-16T06:49:47.127Z,94.61
2022-11-16T06:52:50.569Z,94.65
2022-11-16T06:55:53.188Z,94.68
2022-11-16T06:58:57.230Z,94.71
2022-11-16T07:02:00.400Z,94.68
2022-11-16T07:05:05.012Z,94.74
2022-11-16T07:08:08.131Z,94.77
2022-11-16T07:11:11.156Z,94.81
2022-11-16T07:14:13.622Z,94.80
2022-11-16T07:17:16.769Z,94.71
2022-11-16T07:20:19.445Z,94.62
2022-11-16T07:23:22.848Z,94.48
2022-11-16T07:26:25.493Z,94.46
2022-11-16T07:29:28.606Z,94.51
2022-11-16T07:32:39.988Z,94.55
2022-11-16T07:35:44.523Z,94.65
2022-11-16T07:38:47.197Z,94.66
2022-11-16T07:41:53.071Z,94.50
2022-11-16T07:44:56.619Z,94.59
2022-11-16T07:47:59.183Z,94.55
2022-11-16T07:51:04.919Z,94.53
2022-11-16T07:54:08.279Z,94.54
2022-11-16T07:57:10.649Z,94.40
2022-11-16T08:00:14.915Z,94.47
2022-11-16T08:03:24.460Z,94.47
2022-11-16T08:06:30.955Z,94.35
2022-11-16T08:09:34.956Z,94.27
2022-11-16T08:12:37.491Z,94.15
2022-11-16T08:15:41.246Z,94.10
2022-11-16T08:18:44.884Z,94.04
2022-11-16T08:21:48.306Z,94.00
2022-11-16T08:24:51.019Z,93.84
2022-11-16T08:27:53.593Z,93.76
2022-11-16T08:30:57.108Z,93.70
2022-11-16T08:34:00.501Z,93.46
2022-11-16T08:37:03.023Z,93.51
2022-11-16T08:40:07.450Z,93.64
2022-11-16T08:43:11.174Z,93.77
2022-11-16T08:46:14.583Z,93.86
2022-11-16T08:49:18.336Z,93.83
2022-11-16T08:52:21.485Z,93.79
2022-11-16T08:55:25.528Z,93.67
2022-11-16T08:58:28.171Z,93.62
2022-11-16T09:01:32.821Z,93.69
2022-11-16T09:04:37.187Z,93.65
2022-11-16T09:07:40.829Z,93.65
2022-11-16T09:10:43.440Z,93.63
2022-11-16T09:13:48.478Z,93.20
2022-11-16T09:16:51.162Z,93.39
2022-11-16T09:19:53.492Z,93.42
2022-11-16T09:22:55.985Z,93.30
2022-11-16T09:26:01.845Z,93.40
2022-11-16T09:29:04.426Z,93.22
2022-11-16T09:32:06.962Z,93.16
2022-11-16T09:35:09.907Z,92.97
2022-11-16T09:38:16.174Z,93.07
2022-11-16T09:41:52.396Z,93.16
2022-11-16T09:45:25.110Z,93.34
2022-11-16T09:48:28.353Z,93.27
2022-11-16T09:51:33.803Z,93.21
2022-11-16T09:54:43.235Z,92.86
2022-11-16T09:57:47.704Z,92.75
2022-11-16T10:00:58.927Z,92.68
2022-11-16T10:04:18.265Z,92.60
2022-11-16T10:07:26.878Z,92.63
2022-11-16T10:10:33.246Z,92.62
2022-11-16T10:14:13.347Z,92.72
2022-11-16T10:17:40.203Z,92.62
2022-11-16T10:21:04.053Z,92.38
2022-11-16T10:24:47.253Z,92.37
2022-11-16T10:28:18.002Z,92.30
2022-11-16T10:31:24.000Z,92.24
2022-11-16T10:34:30.421Z,92.26
2022-11-16T10:37:37.423Z,92.33
2022-11-16T10:40:41.245Z,92.31
2022-11-16T10:43:45.672Z,92.16
2022-11-16T10:46:59.238Z,92.02
2022-11-16T10:50:32.379Z,91.78
2022-11-16T10:53:37.560Z,91.92
2022-11-16T10:56:47.752Z,91.84
2022-11-16T10:59:55.612Z,91.73
2022-11-16T11:02:59.181Z,91.57
2022-11-16T11:06:01.453Z,91.72
2022-11-16T11:09:22.804Z,91.54
2022-11-16T11:12:39.093Z,91.40
2022-11-16T11:15:43.153Z,91.32
2022-11-16T11:18:45.473Z,91.41
2022-11-16T11:21:49.037Z,91.24
2022-11-16T11:24:51.582Z,91.08
2022-11-16T11:28:06.831Z,91.02
2022-11-16T11:31:25.831Z,90.90
2022-11-16T11:34:31.318Z,90.87
2022-11-16T11:37:36.901Z,90.80
2022-11-16T11:40:39.691Z,90.80
2022-11-16T11:43:42.039Z,90.77
2022-11-16T11:50:50.881Z,90.90
2022-11-16T11:53:55.502Z,90.84
2022-11-16T11:56:58.412Z,90.84
2022-11-16T12:00:03.228Z,90.87
2022-11-16T12:03:39.997Z,90.87
2022-11-16T12:06:51.498Z,91.10
2022-11-16T12:10:08.058Z,91.00
2022-11-16T12:13:49.482Z,91.09
2022-11-16T12:17:07.256Z,91.26
2022-11-16T12:20:21.006Z,91.28
2022-11-16T12:23:43.037Z,91.49
2022-11-16T12:26:56.880Z,91.61
2022-11-16T12:30:08.154Z,91.66
2022-11-16T12:33:22.277Z,91.76
2022-11-16T12:37:09.410Z,91.80
2022-11-16T12:40:35.775Z,91.83
2022-11-16T12:43:43.837Z,91.82
2022-11-16T12:47:17.967Z,91.97
2022-11-16T12:50:38.822Z,92.02
2022-11-16T12:54:09.484Z,92.04
2022-11-16T12:57:37.553Z,92.06
2022-11-16T13:01:21.407Z,92.35
2022-11-16T13:04:30.706Z,92.41
2022-11-16T13:07:42.829Z,92.46
2022-11-16T13:10:49.402Z,92.41
2022-11-16T13:13:58.329Z,92.39
2022-11-16T13:17:03.330Z,92.53
2022-11-16T13:20:40.780Z,92.56
2022-11-16T13:24:10.514Z,92.64
2022-11-16T13:27:45.219Z,92.66
2022-11-16T13:31:01.983Z,92.72
2022-11-16T13:34:20.437Z,92.79
2022-11-16T13:37:38.145Z,92.91
2022-11-16T13:40:41.451Z,93.04
2022-11-16T13:43:49.495Z,93.05
2022-11-16T13:47:04.419Z,93.10
2022-11-16T13:50:18.762Z,93.15
2022-11-16T13:54:25.133Z,93.16
2022-11-16T13:56:51.872Z,93.07
2022-11-16T14:00:04.982Z,93.00
2022-11-16T14:03:16.651Z,93.20
2022-11-16T14:06:18.824Z,93.22
2022-11-16T14:09:41.189Z,93.39
2022-11-16T14:12:52.905Z,93.39
2022-11-16T14:16:20.521Z,93.37
2022-11-16T14:19:44.608Z,93.51
2022-11-16T14:22:59.148Z,93.59
2022-11-16T14:26:07.178Z,93.50
2022-11-16T14:29:37.062Z,93.63
2022-11-16T14:32:52.705Z,93.75
2022-11-16T14:35:55.514Z,93.66
2022-11-16T14:39:17.358Z,93.69
2022-11-16T14:42:27.235Z,93.74
2022-11-16T14:45:31.870Z,93.65
2022-11-16T14:48:41.951Z,93.55
2022-11-16T14:51:47.589Z,93.71
2022-11-16T14:55:00.607Z,93.84
2022-11-16T14:58:23.301Z,93.98
2022-11-16T15:01:46.335Z,94.08
2022-11-16T15:04:51.582Z,94.04
2022-11-16T15:07:57.916Z,93.96
2022-11-16T15:11:00.965Z,94.04
2022-11-16T15:14:03.496Z,94.07
2022-11-16T15:17:07.441Z,94.17
2022-11-16T15:20:22.089Z,94.13
2022-11-16T15:23:30.336Z,94.14
2022-11-16T15:26:33.459Z,94.30
2022-11-16T15:29:36.292Z,94.42
2022-11-16T15:32:43.062Z,94.50
2022-11-16T15:35:47.249Z,94.42
2022-11-16T15:38:54.681Z,94.45
2022-11-16T15:42:03.245Z,94.43
2022-11-16T15:45:15.473Z,94.49
2022-11-16T15:48:22.083Z,94.47
2022-11-16T15:51:24.867Z,94.51
2022-11-16T15:54:27.056Z,94.47
2022-11-16T15:57:29.889Z,94.42
2022-11-16T16:00:35.569Z,94.40
2022-11-16T16:03:38.800Z,94.48
2022-11-16T16:06:59.507Z,94.43
2022-11-16T16:10:37.438Z,94.51
2022-11-16T16:13:55.840Z,94.47
2022-11-16T16:17:00.498Z,94.50
2022-11-16T16:20:06.646Z,94.65
2022-11-16T16:23:13.178Z,94.70
2022-11-16T16:26:16.411Z,94.65
2022-11-16T16:29:18.930Z,94.69
2022-11-16T16:32:33.462Z,94.73
2022-11-16T16:35:35.987Z,94.76
2022-11-16T16:38:38.970Z,94.83
2022-11-16T16:41:41.513Z,94.90
2022-11-16T16:44:45.433Z,94.96
2022-11-16T16:47:48.076Z,95.04
2022-11-16T16:50:50.410Z,95.00
2022-11-16T16:53:53.027Z,94.93
2022-11-16T16:56:57.317Z,94.90
2022-11-16T17:00:00.073Z,94.91
2022-11-16T17:03:02.387Z,94.93
2022-11-16T17:06:05.101Z,94.84
2022-11-16T17:09:07.356Z,94.79
2022-11-16T17:12:11.007Z,94.76
2022-11-16T17:15:19.027Z,94.84
2022-11-16T17:18:22.710Z,94.82
2022-11-16T17:21:25.060Z,94.83
2022-11-16T17:24:37.193Z,94.83
2022-11-16T17:27:42.408Z,94.89
2022-11-16T17:30:44.979Z,94.98
2022-11-16T17:33:47.401Z,95.02
2022-11-16T17:36:50.056Z,94.99
2022-11-16T17:39:52.237Z,95.01
2022-11-16T17:42:54.808Z,95.06
2022-11-16T17:46:07.705Z,95.05
2022-11-16T17:49:10.276Z,95.30
2022-11-16T17:52:12.762Z,95.20
2022-11-16T17:55:15.496Z,95.23
2022-11-16T17:58:17.823Z,95.34
2022-11-16T18:01:21.726Z,95.27
2022-11-16T18:04:24.509Z,95.21
2022-11-16T18:07:27.381Z,95.06
2022-11-16T18:10:29.936Z,94.97
2022-11-16T18:13:32.943Z,95.06
2022-11-16T18:16:36.216Z,94.99
2022-11-16T18:19:38.767Z,95.01
2022-11-16T18:22:41.380Z,95.05
2022-11-16T18:25:43.640Z,95.04
2022-11-16T18:28:49.599Z,95.11
2022-11-16T18:31:51.917Z,95.04
2022-11-16T18:34:56.844Z,94.95
2022-11-16T18:37:59.198Z,94.86
2022-11-16T18:41:07.646Z,94.86
2022-11-16T18:44:13.561Z,94.91
2022-11-16T18:47:16.200Z,95.01
2022-11-16T18:50:25.518Z,95.06
2022-11-16T18:53:30.523Z,95.07
2022-11-16T18:56:35.100Z,94.85
2022-11-16T18:59:38.133Z,94.87
2022-11-16T19:02:40.744Z,94.91
2022-11-16T19:05:43.851Z,94.93
2022-11-16T19:08:53.696Z,94.87
2022-11-16T19:11:57.735Z,94.80
2022-11-16T19:15:00.260Z,94.80
2022-11-16T19:18:22.229Z,94.81
2022-11-16T19:21:25.314Z,94.74
2022-11-16T19:24:27.805Z,94.65
2022-11-16T19:27:30.617Z,94.64
2022-11-16T19:30:33.235Z,94.70
2022-11-16T19:33:36.184Z,94.71
2022-11-16T19:36:39.139Z,94.70
2022-11-16T19:39:41.442Z,94.52
2022-11-16T19:42:44.036Z,94.46
2022-11-16T19:45:47.786Z,94.47
2022-11-16T19:48:50.749Z,94.45
2022-11-16T19:51:52.952Z,94.48
2022-11-16T19:54:56.078Z,94.36
2022-11-16T19:57:58.366Z,94.36
2022-11-16T20:01:06.554Z,94.49
2022-11-16T20:04:09.401Z,94.44
2022-11-16T20:07:18.112Z,94.56
2022-11-16T20:10:22.780Z,94.58
2022-11-16T20:13:25.183Z,94.55
2022-11-16T20:16:34.047Z,94.31
2022-11-16T20:19:40.681Z,94.33
2022-11-16T20:22:46.546Z,94.43
2022-11-16T20:25:48.798Z,94.42
2022-11-16T20:28:55.649Z,94.41
2022-11-16T20:31:57.967Z,94.43
2022-11-16T20:35:00.552Z,94.39
2022-11-16T20:38:02.842Z,94.27
2022-11-16T20:41:16.129Z,94.19
2022-11-16T20:44:21.198Z,94.10
2022-11-16T20:47:23.732Z,94.08
2022-11-16T20:50:26.033Z,93.99
2022-11-16T20:53:28.673Z,93.96
2022-11-16T20:56:31.069Z,93.94
2022-11-16T20:59:33.936Z,93.92
2022-11-16T21:02:36.180Z,93.74
2022-11-16T21:05:46.263Z,93.71
2022-11-16T21:08:48.478Z,93.74
2022-11-16T21:12:09.774Z,93.70
2022-11-16T21:15:12.120Z,93.48
2022-11-16T21:18:14.695Z,93.27
2022-11-16T21:21:17.321Z,93.36
2022-11-16T21:24:19.810Z,93.36
2022-11-16T21:27:22.117Z,93.31
2022-11-16T21:30:24.619Z,93.22
2022-11-16T21:33:27.465Z,93.16
2022-11-16T21:36:32.055Z,93.04
2022-11-16T21:39:34.391Z,92.99
2022-11-16T21:42:36.929Z,92.91
2022-11-16T21:45:39.192Z,92.83
2022-11-16T21:48:42.255Z,92.57
2022-11-16T21:51:44.469Z,92.43
2022-11-16T21:54:56.057Z,92.36
2022-11-16T21:57:58.629Z,92.41
2022-11-16T22:01:02.543Z,92.33
2022-11-16T22:04:23.665Z,92.27
2022-11-16T22:07:36.915Z,92.04
2022-11-16T22:10:39.760Z,91.80
2022-11-16T22:13:42.631Z,91.48
2022-11-16T22:16:45.173Z,91.40
2022-11-16T22:19:47.977Z,91.45
2022-11-16T22:22:50.474Z,91.11
2022-11-16T22:25:53.276Z,91.21
2022-11-16T22:28:56.329Z,91.10
2022-11-16T22:31:58.591Z,91.02
2022-11-16T22:35:01.113Z,90.84
2022-11-16T22:38:06.116Z,90.84
2022-11-16T22:41:09.294Z,90.92
2022-11-16T22:44:11.557Z,90.92
2022-11-16T22:47:14.086Z,90.97
2022-11-16T22:50:16.383Z,91.01
2022-11-16T22:53:20.947Z,91.05
2022-11-16T22:56:24.473Z,91.03
2022-11-16T22:59:27.159Z,90.98
2022-11-16T23:02:29.448Z,90.93
2022-11-16T23:05:31.977Z,90.76
2022-11-16T23:08:35.523Z,90.65
2022-11-16T23:11:56.857Z,90.44
2022-11-16T23:15:17.703Z,90.34
2022-11-16T23:18:20.388Z,90.35
2022-11-16T23:21:41.814Z,90.18
2022-11-16T23:25:03.854Z,90.10
2022-11-16T23:28:14.550Z,89.93
2022-11-16T23:31:17.040Z,90.00
2022-11-16T23:34:20.031Z,90.05
2022-11-16T23:37:23.023Z,90.10
2022-11-16T23:40:43.131Z,90.22
2022-11-16T23:44:00.732Z,90.04
2022-11-16T23:47:02.983Z,89.39
2022-11-16T23:50:08.990Z,89.41
2022-11-16T23:53:12.212Z,89.67
2022-11-16T23:56:14.864Z,89.71
2022-11-16T23:59:17.090Z,89.75
